Christchurch, New Zealand
Current Conditions -  °F | °C
As of 11:00 AM on Thursday 23 Oct 2014 (Local Time) from NZCH Reporting Station
Clear Clear  
Wind Chill: 61°   Ceiling: Unl
Heat Index: 61°   Visibility: 6mi
Dew Point: 52°   Wind: 14mph
Humidity: 72%   Direction: 80°E
Pressure: 29.74"   Gusts: NA
Location:  43.53°S, 172.64°E
Report Text: NZCH 222300Z AUTO 08012KT 9999 NCD 16/11 Q1007 NOSIG
Loading
Personal Weather Stations






























Interactive Weather Map
Tropical Storm Tracking
New forecast layout! Learn more

10-Day Weather Forecast

Advertisements
Track Severe Weather on mobile